Guernsey Island, United Kingdom
Current Conditions -  °F | °C
As of 5:50 AM on Monday 22 Dec 2014 (Local Time) from EGJB Reporting Station
Drizzle Drizzle  
Wind Chill: 54°   Ceiling: 200
Heat Index: 54°   Visibility: 2.5mi
Dew Point: 54°   Wind: 24mph
Humidity: 100%   Direction: 230°SW
Pressure: 30.3"   Gusts: NA
Location:  49.43°N, 2.6°W
Report Text: EGJB 220450Z 23021KT 4000 -DZ BR SCT001 BKN002 12/12 Q1026
Loading
Personal Weather Stations






























Interactive Weather Map New forecast layout! Learn more

10-Day Weather Forecast

Advertisements
Track Severe Weather on mobile